Time;durP1;ratioP1;P1;durP2;ratioP2;P2;SDS_P1;SDS_P2;PMS_P1;PMS_P2;Temp;Humidity;BMP_temperature;BMP_pressure;BME280_temperature;BME280_humidity;BME280_pressure;Samples;Min_cycle;Max_cycle;Signal;HPM_P1;HPM_P2
2022/09/16 00:00:06;;;;;;;1.10;0.53;;;;;;;;;;5048798;28;20569;-62
2022/09/16 00:02:43;;;;;;;2.27;0.80;;;;;;;;;;5051491;28;20619;-62
2022/09/16 00:05:13;;;;;;;2.23;0.70;;;;;;;;;;5050105;28;20263;-61
2022/09/16 00:07:45;;;;;;;1.53;0.70;;;;;;;;;;5056067;28;20633;-61
2022/09/16 00:10:30;;;;;;;1.33;0.70;;;;;;;;;;5058619;28;20201;-61
2022/09/16 00:12:59;;;;;;;1.33;0.80;;;;;;;;;;5053697;28;20212;-61
2022/09/16 00:15:29;;;;;;;1.40;0.60;;;;;;;;;;5054912;28;20284;-62
2022/09/16 00:17:59;;;;;;;0.80;0.60;;;;;;;;;;5050048;28;20218;-61
2022/09/16 00:20:30;;;;;;;1.33;0.63;;;;;;;;;;5055479;28;20989;-61
2022/09/16 00:23:01;;;;;;;1.63;0.70;;;;;;;;;;5049208;28;20222;-61
2022/09/16 00:25:33;;;;;;;1.23;0.60;;;;;;;;;;5048733;28;20783;-62
2022/09/16 00:28:05;;;;;;;1.40;0.50;;;;;;;;;;5060665;28;20289;-62
2022/09/16 00:30:34;;;;;;;1.00;0.50;;;;;;;;;;5061921;28;20260;-61
2022/09/16 00:33:06;;;;;;;1.27;0.80;;;;;;;;;;5056642;28;20202;-61
2022/09/16 00:35:38;;;;;;;1.23;0.63;;;;;;;;;;5049393;28;20208;-62
2022/09/16 00:38:06;;;;;;;0.77;0.60;;;;;;;;;;5056669;28;20205;-63
2022/09/16 00:40:50;;;;;;;1.43;0.60;;;;;;;;;;5044680;28;20211;-63
2022/09/16 00:43:50;;;;;;;1.00;0.70;;;;;;;;;;5057220;28;20245;-62
2022/09/16 00:46:42;;;;;;;0.40;0.40;;;;;;;;;;5066785;28;20195;-62
2022/09/16 00:49:13;;;;;;;0.77;0.60;;;;;;;;;;5051052;28;20190;-63
2022/09/16 00:51:47;;;;;;;0.73;0.60;;;;;;;;;;5011844;28;20217;-62
2022/09/16 00:54:19;;;;;;;0.60;0.57;;;;;;;;;;5062981;28;20251;-62
2022/09/16 00:56:51;;;;;;;3.30;0.63;;;;;;;;;;5029604;28;20206;-62
2022/09/16 00:59:26;;;;;;;1.00;0.70;;;;;;;;;;5052081;28;20205;-62
2022/09/16 01:01:56;;;;;;;1.43;0.70;;;;;;;;;;5051333;28;20234;-63
2022/09/16 01:04:30;;;;;;;0.70;0.47;;;;;;;;;;5046609;28;20296;-62
2022/09/16 01:07:04;;;;;;;0.90;0.80;;;;;;;;;;5039246;28;20221;-62
2022/09/16 01:09:38;;;;;;;0.60;0.53;;;;;;;;;;5047341;28;20194;-62
2022/09/16 01:12:13;;;;;;;0.93;0.50;;;;;;;;;;5048957;28;20206;-62
2022/09/16 01:14:54;;;;;;;1.47;0.60;;;;;;;;;;5025644;28;20206;-61
2022/09/16 01:17:42;;;;;;;0.97;0.53;;;;;;;;;;5019928;28;20217;-62
2022/09/16 01:20:35;;;;;;;0.93;0.70;;;;;;;;;;5063190;28;20199;-61
2022/09/16 01:23:26;;;;;;;0.93;0.67;;;;;;;;;;5041328;28;20601;-61
2022/09/16 01:26:15;;;;;;;1.27;0.70;;;;;;;;;;5019450;28;20195;-62
2022/09/16 01:29:10;;;;;;;1.57;0.70;;;;;;;;;;5049881;28;20699;-61
2022/09/16 01:31:58;;;;;;;0.90;0.60;;;;;;;;;;5043926;28;20628;-61
2022/09/16 01:34:31;;;;;;;0.70;0.63;;;;;;;;;;5053619;28;20909;-67
2022/09/16 01:37:16;;;;;;;1.83;0.77;;;;;;;;;;5046527;28;20209;-62
2022/09/16 01:40:03;;;;;;;1.40;0.60;;;;;;;;;;5037748;28;20222;-61
2022/09/16 01:42:53;;;;;;;1.50;0.90;;;;;;;;;;5032984;28;20222;-62
2022/09/16 01:45:23;;;;;;;0.87;0.53;;;;;;;;;;5064098;28;20192;-62
2022/09/16 01:48:07;;;;;;;0.73;0.60;;;;;;;;;;5049445;28;20217;-62
2022/09/16 01:51:08;;;;;;;1.27;0.67;;;;;;;;;;5036211;28;20248;-61
2022/09/16 01:53:57;;;;;;;1.23;0.60;;;;;;;;;;5016830;28;20217;-62
2022/09/16 01:56:41;;;;;;;2.13;0.60;;;;;;;;;;5049263;28;20198;-61
2022/09/16 01:59:20;;;;;;;0.87;0.40;;;;;;;;;;5062244;28;20252;-62
2022/09/16 02:02:15;;;;;;;2.27;0.60;;;;;;;;;;5051132;28;20233;-62
2022/09/16 02:04:56;;;;;;;1.00;0.50;;;;;;;;;;5044584;28;20191;-62
2022/09/16 02:07:31;;;;;;;1.40;0.77;;;;;;;;;;5062515;28;20193;-62
2022/09/16 02:10:25;;;;;;;1.03;0.73;;;;;;;;;;5049189;28;20624;-60
2022/09/16 02:12:57;;;;;;;0.60;0.40;;;;;;;;;;5060906;28;21121;-62
2022/09/16 02:15:33;;;;;;;1.53;0.80;;;;;;;;;;5039212;28;20206;-62
2022/09/16 02:18:23;;;;;;;1.10;0.60;;;;;;;;;;5060367;28;20267;-61
2022/09/16 02:20:59;;;;;;;1.43;0.70;;;;;;;;;;5033108;28;20642;-62
2022/09/16 02:23:38;;;;;;;0.67;0.63;;;;;;;;;;5044788;28;20222;-62
2022/09/16 02:26:16;;;;;;;1.03;0.67;;;;;;;;;;5053041;28;20705;-62
2022/09/16 02:28:50;;;;;;;1.63;0.80;;;;;;;;;;5043177;28;20292;-62
2022/09/16 02:31:24;;;;;;;1.17;0.50;;;;;;;;;;5037303;28;20198;-62
2022/09/16 02:33:56;;;;;;;2.20;0.70;;;;;;;;;;5052518;28;20735;-61
2022/09/16 02:36:28;;;;;;;1.27;0.50;;;;;;;;;;5051439;28;20273;-62
2022/09/16 02:39:08;;;;;;;1.40;0.70;;;;;;;;;;5059450;28;20687;-61
2022/09/16 02:41:45;;;;;;;1.27;0.70;;;;;;;;;;5045447;28;21016;-62
2022/09/16 02:44:21;;;;;;;1.40;0.80;;;;;;;;;;5050635;28;20209;-62
2022/09/16 02:47:01;;;;;;;1.70;0.53;;;;;;;;;;5032266;28;20190;-62
2022/09/16 02:49:54;;;;;;;2.10;0.87;;;;;;;;;;5051811;28;20224;-62
2022/09/16 02:52:45;;;;;;;1.03;0.60;;;;;;;;;;5008711;28;20715;-61
2022/09/16 02:55:36;;;;;;;1.07;0.60;;;;;;;;;;5018395;28;20202;-61
2022/09/16 02:58:10;;;;;;;1.43;0.77;;;;;;;;;;5050545;28;20646;-61
2022/09/16 03:00:47;;;;;;;1.43;0.60;;;;;;;;;;5046523;28;20754;-61
2022/09/16 03:03:18;;;;;;;1.33;0.63;;;;;;;;;;5047884;28;20264;-61
2022/09/16 03:06:09;;;;;;;1.03;0.50;;;;;;;;;;5025756;28;20232;-61
2022/09/16 03:08:55;;;;;;;1.50;0.70;;;;;;;;;;5041560;28;20281;-61
2022/09/16 03:11:42;;;;;;;1.27;0.70;;;;;;;;;;5037798;28;20581;-61
2022/09/16 03:14:23;;;;;;;2.07;0.60;;;;;;;;;;5030428;28;20186;-61
2022/09/16 03:17:14;;;;;;;0.93;0.60;;;;;;;;;;5058673;28;20267;-61
2022/09/16 03:19:50;;;;;;;1.57;0.70;;;;;;;;;;5068315;28;21784;-61
2022/09/16 03:22:39;;;;;;;0.80;0.80;;;;;;;;;;5051421;28;20220;-61
2022/09/16 03:25:25;;;;;;;1.43;0.90;;;;;;;;;;5054737;28;20535;-61
2022/09/16 03:28:09;;;;;;;1.17;0.80;;;;;;;;;;5059749;28;20276;-61
2022/09/16 03:30:49;;;;;;;0.93;0.70;;;;;;;;;;5050193;28;20237;-61
2022/09/16 03:33:29;;;;;;;1.50;1.10;;;;;;;;;;5050833;28;20252;-61
2022/09/16 03:36:04;;;;;;;1.00;0.70;;;;;;;;;;5051928;28;20213;-61
2022/09/16 03:38:45;;;;;;;0.70;0.70;;;;;;;;;;5043266;28;20178;-61
2022/09/16 03:41:19;;;;;;;1.03;0.53;;;;;;;;;;5051917;28;20187;-61
2022/09/16 03:43:55;;;;;;;1.43;0.70;;;;;;;;;;5043094;28;20218;-61
2022/09/16 03:46:31;;;;;;;1.73;0.70;;;;;;;;;;5028288;28;20214;-62
2022/09/16 03:49:04;;;;;;;1.17;0.60;;;;;;;;;;5050364;28;20224;-60
2022/09/16 03:51:33;;;;;;;0.80;0.60;;;;;;;;;;5039234;28;20221;-61
2022/09/16 03:54:06;;;;;;;1.63;0.80;;;;;;;;;;5050699;28;20631;-61
2022/09/16 03:56:37;;;;;;;1.13;0.60;;;;;;;;;;5051557;28;20859;-60
2022/09/16 03:59:05;;;;;;;1.20;0.60;;;;;;;;;;5050424;28;20592;-61
2022/09/16 04:01:40;;;;;;;1.60;0.60;;;;;;;;;;5051568;28;20235;-62
2022/09/16 04:04:13;;;;;;;1.27;0.77;;;;;;;;;;5046203;28;20219;-61
2022/09/16 04:06:43;;;;;;;1.00;0.63;;;;;;;;;;5051960;28;20190;-61
2022/09/16 04:09:17;;;;;;;1.50;1.03;;;;;;;;;;5048454;28;20206;-61
2022/09/16 04:12:20;;;;;;;1.67;0.60;;;;;;;;;;5049655;28;20568;-62
2022/09/16 04:14:49;;;;;;;1.07;0.60;;;;;;;;;;5045980;28;20260;-61
2022/09/16 04:17:21;;;;;;;1.47;0.87;;;;;;;;;;5059848;28;20200;-61
2022/09/16 04:19:52;;;;;;;1.47;0.73;;;;;;;;;;5040027;28;20558;-61
2022/09/16 04:22:23;;;;;;;1.40;0.80;;;;;;;;;;5050393;28;20195;-62
2022/09/16 04:24:55;;;;;;;1.73;0.87;;;;;;;;;;5047175;28;20214;-61
2022/09/16 04:27:25;;;;;;;1.77;1.00;;;;;;;;;;5061196;28;20225;-61
2022/09/16 04:29:56;;;;;;;1.00;0.73;;;;;;;;;;5052246;28;20195;-61
2022/09/16 04:32:28;;;;;;;3.87;0.80;;;;;;;;;;5060426;28;20237;-61
2022/09/16 04:35:01;;;;;;;1.43;0.70;;;;;;;;;;5030399;28;20698;-61
2022/09/16 04:37:30;;;;;;;1.77;0.87;;;;;;;;;;5058482;28;20209;-61
2022/09/16 04:39:59;;;;;;;1.13;0.80;;;;;;;;;;5046152;28;20296;-61
2022/09/16 04:42:36;;;;;;;1.30;0.80;;;;;;;;;;5058235;28;20625;-60
2022/09/16 04:45:06;;;;;;;1.53;0.60;;;;;;;;;;5050299;28;20228;-61
2022/09/16 04:47:36;;;;;;;1.63;0.90;;;;;;;;;;5048790;28;20198;-61
2022/09/16 04:50:28;;;;;;;1.40;0.80;;;;;;;;;;5040362;28;20202;-61
2022/09/16 04:52:56;;;;;;;1.13;0.50;;;;;;;;;;5028023;28;20701;-61
2022/09/16 04:55:40;;;;;;;2.00;0.70;;;;;;;;;;5051500;28;20213;-62
2022/09/16 04:58:20;;;;;;;1.73;0.70;;;;;;;;;;5044237;28;20205;-61
2022/09/16 05:00:55;;;;;;;1.73;0.80;;;;;;;;;;5049591;28;20237;-61
2022/09/16 05:03:28;;;;;;;3.43;0.80;;;;;;;;;;5028801;28;20299;-61
2022/09/16 05:06:15;;;;;;;2.20;0.60;;;;;;;;;;5055276;28;20198;-63
2022/09/16 05:08:49;;;;;;;1.03;0.53;;;;;;;;;;5050738;28;20210;-62
2022/09/16 05:11:23;;;;;;;1.37;0.60;;;;;;;;;;5056674;28;20202;-62
2022/09/16 05:13:57;;;;;;;0.80;0.70;;;;;;;;;;5045638;28;20682;-62
2022/09/16 05:16:29;;;;;;;4.90;1.27;;;;;;;;;;5051635;28;20283;-62
2022/09/16 05:19:04;;;;;;;9.33;2.60;;;;;;;;;;5049496;28;20643;-62
2022/09/16 05:21:37;;;;;;;11.43;3.70;;;;;;;;;;5063904;28;20768;-62
2022/09/16 05:24:09;;;;;;;16.33;4.47;;;;;;;;;;5036452;28;20218;-62
2022/09/16 05:26:43;;;;;;;15.90;5.53;;;;;;;;;;5061144;28;20182;-62
2022/09/16 05:29:15;;;;;;;16.67;5.60;;;;;;;;;;5063460;28;20763;-62
2022/09/16 05:31:46;;;;;;;14.53;5.27;;;;;;;;;;5046698;28;20571;-62
2022/09/16 05:34:20;;;;;;;15.53;5.60;;;;;;;;;;5048031;28;20195;-62
2022/09/16 05:36:53;;;;;;;15.90;5.53;;;;;;;;;;5060496;28;20224;-62
2022/09/16 05:39:22;;;;;;;16.93;5.40;;;;;;;;;;5042868;28;20210;-62
2022/09/16 05:42:15;;;;;;;14.30;5.60;;;;;;;;;;5044079;28;20202;-62
2022/09/16 05:44:47;;;;;;;14.23;5.23;;;;;;;;;;5042855;28;20276;-62
2022/09/16 05:47:14;;;;;;;15.63;5.20;;;;;;;;;;5046218;28;20210;-62
2022/09/16 05:49:44;;;;;;;13.57;5.20;;;;;;;;;;5039304;28;20483;-62
2022/09/16 05:52:16;;;;;;;14.47;5.83;;;;;;;;;;5048132;28;20205;-62
2022/09/16 05:54:47;;;;;;;11.07;4.57;;;;;;;;;;5037315;28;20202;-62
2022/09/16 05:57:22;;;;;;;14.67;4.80;;;;;;;;;;5049266;28;20238;-62
2022/09/16 05:59:53;;;;;;;9.67;4.27;;;;;;;;;;5047823;28;20194;-62
2022/09/16 06:02:22;;;;;;;13.57;4.80;;;;;;;;;;5047875;28;20202;-62
2022/09/16 06:04:53;;;;;;;10.47;4.50;;;;;;;;;;5041500;28;20234;-62
2022/09/16 06:07:33;;;;;;;11.37;3.97;;;;;;;;;;5051111;28;20189;-62
2022/09/16 06:10:02;;;;;;;10.77;4.13;;;;;;;;;;5056534;28;20248;-62
2022/09/16 06:12:35;;;;;;;8.37;3.87;;;;;;;;;;5048658;28;20205;-61
2022/09/16 06:15:07;;;;;;;8.57;3.73;;;;;;;;;;5059112;28;20211;-61
2022/09/16 06:17:34;;;;;;;9.33;4.40;;;;;;;;;;5048800;28;20198;-61
2022/09/16 06:20:12;;;;;;;10.47;4.07;;;;;;;;;;5047153;28;20268;-62
2022/09/16 06:22:43;;;;;;;6.57;3.20;;;;;;;;;;5043450;28;20192;-62
2022/09/16 06:25:14;;;;;;;7.60;3.70;;;;;;;;;;5044290;28;20228;-61
2022/09/16 06:27:46;;;;;;;4.80;2.78;;;;;;;;;;5041512;28;20772;-65
2022/09/16 06:30:18;;;;;;;7.70;2.63;;;;;;;;;;5038348;28;20201;-65
2022/09/16 06:32:55;;;;;;;7.80;2.80;;;;;;;;;;5045328;28;20202;-66
2022/09/16 06:35:25;;;;;;;9.67;2.20;;;;;;;;;;5046111;28;20201;-66
2022/09/16 06:37:53;;;;;;;10.83;2.40;;;;;;;;;;5051320;28;20201;-65
2022/09/16 06:40:26;;;;;;;3.83;2.00;;;;;;;;;;5043717;28;20210;-65
2022/09/16 06:42:59;;;;;;;3.93;1.93;;;;;;;;;;5045236;28;20218;-65
2022/09/16 06:45:29;;;;;;;5.90;2.20;;;;;;;;;;5046681;28;20221;-65
2022/09/16 06:48:00;;;;;;;5.43;1.80;;;;;;;;;;5045375;28;20202;-67
2022/09/16 06:50:31;;;;;;;4.87;1.70;;;;;;;;;;5062136;28;20198;-64
2022/09/16 06:53:02;;;;;;;5.87;1.77;;;;;;;;;;5012159;28;20213;-64
2022/09/16 06:55:34;;;;;;;9.63;2.23;;;;;;;;;;5046082;28;20244;-65
2022/09/16 06:58:08;;;;;;;5.67;1.63;;;;;;;;;;5047033;28;20221;-65
2022/09/16 07:00:41;;;;;;;7.37;1.53;;;;;;;;;;5057901;28;20313;-64
2022/09/16 07:03:12;;;;;;;4.00;1.50;;;;;;;;;;5057719;28;20218;-66
2022/09/16 07:05:44;;;;;;;3.77;1.43;;;;;;;;;;5045177;28;20253;-65
2022/09/16 07:08:15;;;;;;;4.50;1.20;;;;;;;;;;5058488;28;20178;-65
2022/09/16 07:10:44;;;;;;;3.53;1.50;;;;;;;;;;5043561;28;20190;-65
2022/09/16 07:13:19;;;;;;;7.00;1.37;;;;;;;;;;5060523;28;20194;-65
2022/09/16 07:15:49;;;;;;;4.97;1.10;;;;;;;;;;5053785;28;20652;-65
2022/09/16 07:18:40;;;;;;;3.23;1.30;;;;;;;;;;5052619;28;20195;-65
2022/09/16 07:21:19;;;;;;;3.40;1.20;;;;;;;;;;5047065;28;20207;-66
2022/09/16 07:23:52;;;;;;;3.60;1.13;;;;;;;;;;5045211;28;20627;-64
2022/09/16 07:26:25;;;;;;;3.80;1.00;;;;;;;;;;5058734;28;20193;-63
2022/09/16 07:28:58;;;;;;;1.60;0.90;;;;;;;;;;5039453;28;20621;-64
2022/09/16 07:31:29;;;;;;;2.77;1.00;;;;;;;;;;5045339;28;20179;-68
2022/09/16 07:34:02;;;;;;;4.20;0.97;;;;;;;;;;5044873;28;20282;-64
2022/09/16 07:36:34;;;;;;;6.70;1.20;;;;;;;;;;5042274;28;20194;-69
2022/09/16 07:39:03;;;;;;;9.10;1.23;;;;;;;;;;5044542;28;20218;-69
2022/09/16 07:41:33;;;;;;;3.90;1.00;;;;;;;;;;5065374;28;20281;-67
2022/09/16 07:44:03;;;;;;;3.37;0.87;;;;;;;;;;5064617;28;20254;-66
2022/09/16 07:46:37;;;;;;;3.13;1.00;;;;;;;;;;5049586;28;20676;-66
2022/09/16 07:49:07;;;;;;;4.30;0.90;;;;;;;;;;5051903;28;20194;-65
2022/09/16 07:51:37;;;;;;;2.77;1.07;;;;;;;;;;5045953;28;20206;-65
2022/09/16 07:54:15;;;;;;;4.33;1.00;;;;;;;;;;5050192;28;20275;-65
2022/09/16 07:56:48;;;;;;;2.67;0.80;;;;;;;;;;5044159;28;20199;-65
2022/09/16 07:59:17;;;;;;;3.37;0.90;;;;;;;;;;5052906;28;20655;-65
2022/09/16 08:02:07;;;;;;;3.67;1.07;;;;;;;;;;5051101;28;20231;-65
2022/09/16 08:04:51;;;;;;;2.60;1.17;;;;;;;;;;5046562;28;20263;-65
2022/09/16 08:07:20;;;;;;;3.80;0.70;;;;;;;;;;5047153;28;20213;-64
2022/09/16 08:09:51;;;;;;;3.50;1.00;;;;;;;;;;5049128;28;20190;-65
2022/09/16 08:12:24;;;;;;;1.70;0.97;;;;;;;;;;5048840;28;20329;-65
2022/09/16 08:14:54;;;;;;;1.60;0.60;;;;;;;;;;5043791;28;20260;-65
2022/09/16 08:17:27;;;;;;;1.17;0.40;;;;;;;;;;5048594;28;20292;-68
2022/09/16 08:20:08;;;;;;;5.00;1.13;;;;;;;;;;5079598;28;20767;-68
2022/09/16 08:22:41;;;;;;;5.17;0.90;;;;;;;;;;5047381;28;20217;-65
2022/09/16 08:25:41;;;;;;;1.67;0.53;;;;;;;;;;5048775;28;20222;-67
2022/09/16 08:28:21;;;;;;;1.90;0.77;;;;;;;;;;5076486;28;20218;-66
2022/09/16 08:30:52;;;;;;;1.97;0.77;;;;;;;;;;5045070;28;20206;-66
2022/09/16 08:33:24;;;;;;;3.90;0.60;;;;;;;;;;5049046;28;20198;-66
2022/09/16 08:36:10;;;;;;;3.77;0.77;;;;;;;;;;5048569;28;20532;-66
2022/09/16 08:38:39;;;;;;;1.30;0.80;;;;;;;;;;5041465;28;20247;-65
2022/09/16 08:41:18;;;;;;;3.30;0.80;;;;;;;;;;5065097;28;20198;-66
2022/09/16 08:44:07;;;;;;;2.90;0.70;;;;;;;;;;5057355;28;20210;-67
2022/09/16 08:46:53;;;;;;;1.67;0.67;;;;;;;;;;5046881;28;20206;-67
2022/09/16 08:49:26;;;;;;;1.10;0.60;;;;;;;;;;5076104;28;20199;-67
2022/09/16 08:51:57;;;;;;;1.87;0.60;;;;;;;;;;5051012;28;20213;-66
2022/09/16 08:54:37;;;;;;;1.57;0.60;;;;;;;;;;5025216;28;20263;-65
2022/09/16 08:57:09;;;;;;;0.63;0.43;;;;;;;;;;5048658;28;20224;-67
2022/09/16 08:59:41;;;;;;;5.03;0.80;;;;;;;;;;5044452;28;20277;-65
2022/09/16 09:02:41;;;;;;;1.43;0.50;;;;;;;;;;5069577;28;20228;-66
2022/09/16 09:05:16;;;;;;;1.30;0.70;;;;;;;;;;5058832;28;20233;-66
2022/09/16 09:07:57;;;;;;;1.17;0.60;;;;;;;;;;5045310;28;20216;-67
2022/09/16 09:10:40;;;;;;;1.47;0.70;;;;;;;;;;5045448;28;20205;-66
2022/09/16 09:13:31;;;;;;;4.00;0.60;;;;;;;;;;5045155;28;20623;-65
2022/09/16 09:16:18;;;;;;;1.43;0.60;;;;;;;;;;5055927;28;20315;-65
2022/09/16 09:18:49;;;;;;;2.43;0.67;;;;;;;;;;5030340;28;20589;-65
2022/09/16 09:21:35;;;;;;;1.63;0.60;;;;;;;;;;5057707;28;20202;-66
2022/09/16 09:24:16;;;;;;;1.30;0.70;;;;;;;;;;5048179;28;20205;-66
2022/09/16 09:26:55;;;;;;;1.17;0.57;;;;;;;;;;5041776;28;20225;-66
2022/09/16 09:29:47;;;;;;;1.40;0.70;;;;;;;;;;5037044;28;20206;-64
2022/09/16 09:32:33;;;;;;;1.43;0.50;;;;;;;;;;5042461;28;20190;-63
2022/09/16 09:35:35;;;;;;;1.67;0.60;;;;;;;;;;5060915;28;20289;-64
2022/09/16 09:38:22;;;;;;;3.30;0.60;;;;;;;;;;5063527;28;20297;-67
2022/09/16 09:40:55;;;;;;;2.57;0.80;;;;;;;;;;5053780;28;20222;-65
2022/09/16 09:43:43;;;;;;;1.63;0.40;;;;;;;;;;5047094;28;20558;-63
2022/09/16 09:46:23;;;;;;;3.37;0.60;;;;;;;;;;5051812;28;20217;-67
2022/09/16 09:49:11;;;;;;;1.17;0.60;;;;;;;;;;5054269;28;20193;-66
2022/09/16 09:51:45;;;;;;;2.33;0.60;;;;;;;;;;5041152;28;20214;-66
2022/09/16 09:54:30;;;;;;;1.40;0.60;;;;;;;;;;5041631;28;20190;-65
2022/09/16 09:57:18;;;;;;;0.60;0.50;;;;;;;;;;5037253;28;20230;-66
2022/09/16 10:00:14;;;;;;;1.33;0.60;;;;;;;;;;5050442;28;20201;-66
2022/09/16 10:02:49;;;;;;;3.03;0.50;;;;;;;;;;5042308;28;20233;-64
2022/09/16 10:05:29;;;;;;;1.47;0.57;;;;;;;;;;5053221;28;20206;-66
2022/09/16 10:08:11;;;;;;;1.90;0.60;;;;;;;;;;5063859;28;20654;-66
2022/09/16 10:10:55;;;;;;;1.20;0.60;;;;;;;;;;5049644;28;20194;-66
2022/09/16 10:13:28;;;;;;;2.67;0.50;;;;;;;;;;5052077;28;20190;-64
2022/09/16 10:16:09;;;;;;;1.27;0.50;;;;;;;;;;5059773;28;20201;-64
2022/09/16 10:18:42;;;;;;;1.67;0.40;;;;;;;;;;5027193;28;20191;-64
2022/09/16 10:21:15;;;;;;;1.27;0.60;;;;;;;;;;5049584;28;20336;-63
2022/09/16 10:23:56;;;;;;;1.00;0.50;;;;;;;;;;5046436;28;20186;-64
2022/09/16 10:26:41;;;;;;;1.57;0.60;;;;;;;;;;5043430;28;20209;-64
2022/09/16 10:29:21;;;;;;;4.47;0.60;;;;;;;;;;5045380;28;20202;-64
2022/09/16 10:31:52;;;;;;;1.63;0.60;;;;;;;;;;5063949;28;20195;-64
2022/09/16 10:34:38;;;;;;;1.77;0.40;;;;;;;;;;5064119;28;20214;-64
2022/09/16 10:37:11;;;;;;;0.73;0.30;;;;;;;;;;5043920;28;20190;-64
2022/09/16 10:39:51;;;;;;;2.47;0.60;;;;;;;;;;5043963;28;20209;-64
2022/09/16 10:42:26;;;;;;;0.93;0.50;;;;;;;;;;5032916;28;20224;-63
2022/09/16 10:45:07;;;;;;;0.60;0.40;;;;;;;;;;5046545;28;20216;-64
2022/09/16 10:47:52;;;;;;;1.43;0.50;;;;;;;;;;5032093;28;20256;-63
2022/09/16 10:50:24;;;;;;;1.93;0.60;;;;;;;;;;5035530;28;20200;-63
2022/09/16 10:52:55;;;;;;;1.80;0.40;;;;;;;;;;5044325;28;20667;-64
2022/09/16 10:55:34;;;;;;;1.10;0.40;;;;;;;;;;5047815;28;20195;-63
2022/09/16 10:58:11;;;;;;;2.20;0.47;;;;;;;;;;5062589;28;20209;-63
2022/09/16 11:01:09;;;;;;;0.60;0.40;;;;;;;;;;5048307;28;20209;-63
2022/09/16 11:03:55;;;;;;;1.07;0.60;;;;;;;;;;5030032;28;20752;-66
2022/09/16 11:06:30;;;;;;;2.83;0.40;;;;;;;;;;5035211;28;20854;-66
2022/09/16 11:09:17;;;;;;;2.17;0.30;;;;;;;;;;5042218;28;20202;-66
2022/09/16 11:12:06;;;;;;;2.10;0.50;;;;;;;;;;5062215;28;20205;-64
2022/09/16 11:14:54;;;;;;;0.80;0.40;;;;;;;;;;5059241;28;20202;-66
2022/09/16 11:17:58;;;;;;;1.03;0.50;;;;;;;;;;5052013;28;20253;-67
2022/09/16 11:20:45;;;;;;;0.77;0.50;;;;;;;;;;5054100;28;20183;-65
2022/09/16 11:23:19;;;;;;;1.60;0.40;;;;;;;;;;5035861;28;20202;-65
2022/09/16 11:26:11;;;;;;;2.33;0.40;;;;;;;;;;5059582;28;20243;-63
2022/09/16 11:28:48;;;;;;;1.20;0.57;;;;;;;;;;5051439;28;20213;-65
2022/09/16 11:31:33;;;;;;;0.80;0.67;;;;;;;;;;5029261;28;20271;-66
2022/09/16 11:34:17;;;;;;;1.27;0.57;;;;;;;;;;5049475;28;20228;-64
2022/09/16 11:37:02;;;;;;;1.40;0.40;;;;;;;;;;5050859;28;20202;-68
2022/09/16 11:39:48;;;;;;;1.37;0.57;;;;;;;;;;5052328;28;20203;-68
2022/09/16 11:42:31;;;;;;;1.47;0.40;;;;;;;;;;5065277;28;20197;-67
2022/09/16 11:45:28;;;;;;;0.60;0.40;;;;;;;;;;5058635;28;20228;-71
2022/09/16 11:48:03;;;;;;;0.47;0.40;;;;;;;;;;5039104;28;20206;-70
2022/09/16 11:50:53;;;;;;;0.53;0.30;;;;;;;;;;5054204;28;20194;-70
2022/09/16 11:53:41;;;;;;;0.97;0.40;;;;;;;;;;5055434;28;20183;-71
2022/09/16 11:56:29;;;;;;;2.00;0.40;;;;;;;;;;5058236;28;20202;-69
2022/09/16 11:59:03;;;;;;;2.23;0.40;;;;;;;;;;5054350;28;20538;-70
2022/09/16 12:02:01;;;;;;;1.03;0.60;;;;;;;;;;5060909;28;20244;-69
2022/09/16 12:04:57;;;;;;;0.70;0.50;;;;;;;;;;5028907;28;20206;-70
2022/09/16 12:07:44;;;;;;;3.23;0.50;;;;;;;;;;5030080;28;20207;-68
2022/09/16 12:10:18;;;;;;;0.83;0.37;;;;;;;;;;5052054;28;20268;-68
2022/09/16 12:12:53;;;;;;;2.23;0.57;;;;;;;;;;5046005;28;20202;-67
2022/09/16 12:15:32;;;;;;;3.70;0.60;;;;;;;;;;5060409;28;20214;-67
2022/09/16 12:18:33;;;;;;;1.70;0.50;;;;;;;;;;5052699;28;20187;-67
2022/09/16 12:21:30;;;;;;;5.87;0.80;;;;;;;;;;5035327;28;20190;-68
2022/09/16 12:24:15;;;;;;;1.37;0.73;;;;;;;;;;5055093;28;20202;-69
2022/09/16 12:26:58;;;;;;;0.70;0.50;;;;;;;;;;5051260;28;20218;-67
2022/09/16 12:29:49;;;;;;;1.30;0.60;;;;;;;;;;5053280;28;20198;-68
2022/09/16 12:32:30;;;;;;;1.67;0.80;;;;;;;;;;4985149;28;20220;-66
2022/09/16 12:35:04;;;;;;;4.90;1.43;;;;;;;;;;4984642;28;20263;-65
2022/09/16 12:37:57;;;;;;;2.83;1.50;;;;;;;;;;4997132;28;20212;-65
2022/09/16 12:40:29;;;;;;;5.27;1.67;;;;;;;;;;4981012;28;20216;-66
2022/09/16 12:43:19;;;;;;;4.47;1.57;;;;;;;;;;4994865;28;20738;-67
2022/09/16 12:46:09;;;;;;;4.37;1.30;;;;;;;;;;4986990;28;20692;-64
2022/09/16 12:48:57;;;;;;;6.33;1.30;;;;;;;;;;4983305;28;20705;-63
2022/09/16 12:51:57;;;;;;;2.67;1.53;;;;;;;;;;5044258;28;20708;-70
2022/09/16 12:54:35;;;;;;;4.80;1.27;;;;;;;;;;5047959;28;20264;-68
2022/09/16 12:57:22;;;;;;;2.40;1.50;;;;;;;;;;5035430;28;20206;-68
2022/09/16 13:00:06;;;;;;;4.60;1.37;;;;;;;;;;5054061;28;20198;-68
2022/09/16 13:02:39;;;;;;;2.93;1.13;;;;;;;;;;5044427;28;20234;-67
2022/09/16 13:05:14;;;;;;;2.07;1.00;;;;;;;;;;5047585;28;20198;-68
2022/09/16 13:07:52;;;;;;;1.63;0.97;;;;;;;;;;5064067;28;20202;-68
2022/09/16 13:10:43;;;;;;;3.87;0.93;;;;;;;;;;5053910;28;20267;-68
2022/09/16 13:13:36;;;;;;;2.80;1.20;;;;;;;;;;5053005;28;20279;-68
2022/09/16 13:16:09;;;;;;;4.13;1.10;;;;;;;;;;5051255;28;20221;-69
2022/09/16 13:19:03;;;;;;;2.33;1.10;;;;;;;;;;5044494;28;20563;-69
2022/09/16 13:21:38;;;;;;;4.20;0.97;;;;;;;;;;5069937;28;20663;-68
2022/09/16 13:24:37;;;;;;;1.77;0.90;;;;;;;;;;5038752;28;20209;-70
2022/09/16 13:27:24;;;;;;;1.00;0.70;;;;;;;;;;5032534;28;20229;-68
2022/09/16 13:30:15;;;;;;;11.53;1.13;;;;;;;;;;5031369;28;20209;-69
2022/09/16 13:33:05;;;;;;;2.90;1.23;;;;;;;;;;5050005;28;20197;-69
2022/09/16 13:35:36;;;;;;;1.23;0.90;;;;;;;;;;5038110;28;20643;-69
2022/09/16 13:38:20;;;;;;;2.87;0.90;;;;;;;;;;5046344;28;20452;-69
2022/09/16 13:40:59;;;;;;;4.70;0.80;;;;;;;;;;5041681;28;20234;-68
2022/09/16 13:43:38;;;;;;;2.33;1.20;;;;;;;;;;5036462;28;20588;-66
2022/09/16 13:46:17;;;;;;;2.23;0.70;;;;;;;;;;5055591;28;20325;-69
2022/09/16 13:48:54;;;;;;;4.20;1.13;;;;;;;;;;5059673;28;20233;-71
2022/09/16 13:51:26;;;;;;;2.50;0.70;;;;;;;;;;5030473;28;20256;-68
2022/09/16 13:54:03;;;;;;;1.27;0.70;;;;;;;;;;5029921;28;20241;-68
2022/09/16 13:56:52;;;;;;;2.53;0.87;;;;;;;;;;5045561;28;20225;-67
2022/09/16 13:59:32;;;;;;;1.47;0.80;;;;;;;;;;5049026;28;20194;-69
2022/09/16 14:02:28;;;;;;;2.67;0.90;;;;;;;;;;5044631;28;20261;-69
2022/09/16 14:05:17;;;;;;;1.40;0.80;;;;;;;;;;5032710;28;20264;-66
2022/09/16 14:07:59;;;;;;;1.10;0.67;;;;;;;;;;5061990;28;20222;-66
2022/09/16 14:10:38;;;;;;;1.80;0.60;;;;;;;;;;5057447;28;20208;-67
2022/09/16 14:13:17;;;;;;;2.20;0.90;;;;;;;;;;5046959;28;20198;-64
2022/09/16 14:16:03;;;;;;;1.80;0.77;;;;;;;;;;5042764;28;20210;-64
2022/09/16 14:18:38;;;;;;;1.77;0.87;;;;;;;;;;5037584;28;20664;-64
2022/09/16 14:21:22;;;;;;;1.03;0.63;;;;;;;;;;5055816;28;20279;-64
2022/09/16 14:23:52;;;;;;;2.40;0.97;;;;;;;;;;5067071;28;20209;-64
2022/09/16 14:26:25;;;;;;;2.33;0.80;;;;;;;;;;5047691;28;20218;-64
2022/09/16 14:29:05;;;;;;;3.47;0.90;;;;;;;;;;5042748;28;20215;-64
2022/09/16 14:31:35;;;;;;;1.93;0.83;;;;;;;;;;5050564;28;20194;-64
2022/09/16 14:34:09;;;;;;;2.50;0.80;;;;;;;;;;5066489;28;20194;-64
2022/09/16 14:36:45;;;;;;;1.13;0.70;;;;;;;;;;5050193;28;20239;-64
2022/09/16 14:39:17;;;;;;;1.77;0.70;;;;;;;;;;5031349;28;20210;-64
2022/09/16 14:42:04;;;;;;;3.03;0.77;;;;;;;;;;5049772;28;20233;-64
2022/09/16 14:45:05;;;;;;;2.57;0.80;;;;;;;;;;5038859;28;20257;-64
2022/09/16 14:47:51;;;;;;;2.53;0.83;;;;;;;;;;5048972;28;20249;-63
2022/09/16 14:50:28;;;;;;;2.00;0.80;;;;;;;;;;5056409;28;20247;-64
2022/09/16 14:52:58;;;;;;;3.70;0.80;;;;;;;;;;5044381;28;20210;-63
2022/09/16 14:55:29;;;;;;;4.47;1.00;;;;;;;;;;5038317;28;20201;-64
2022/09/16 14:57:58;;;;;;;2.67;0.90;;;;;;;;;;5030649;28;20698;-63
2022/09/16 15:00:43;;;;;;;1.63;0.70;;;;;;;;;;5012956;28;20210;-63
2022/09/16 15:03:30;;;;;;;2.07;0.80;;;;;;;;;;5035211;28;20276;-64
2022/09/16 15:06:01;;;;;;;2.63;0.90;;;;;;;;;;5048748;28;20251;-64
2022/09/16 15:08:31;;;;;;;1.00;0.60;;;;;;;;;;5067194;28;20352;-64
2022/09/16 15:11:09;;;;;;;2.20;0.97;;;;;;;;;;5046030;28;20202;-64
2022/09/16 15:14:20;;;;;;;2.53;0.67;;;;;;;;;;5046185;28;20283;-63
2022/09/16 15:16:56;;;;;;;4.87;0.80;;;;;;;;;;5014426;28;20634;-63
2022/09/16 15:19:29;;;;;;;2.57;1.27;;;;;;;;;;5048340;28;20604;-64
2022/09/16 15:22:02;;;;;;;1.87;0.70;;;;;;;;;;5060161;28;20198;-63
2022/09/16 15:24:32;;;;;;;1.90;0.80;;;;;;;;;;5066792;28;20617;-64
2022/09/16 15:27:05;;;;;;;3.03;0.97;;;;;;;;;;5034158;28;20428;-64
2022/09/16 15:29:49;;;;;;;2.97;1.03;;;;;;;;;;5050497;28;20203;-63
2022/09/16 15:32:22;;;;;;;6.50;2.17;;;;;;;;;;5053058;28;20202;-63
2022/09/16 15:35:21;;;;;;;9.67;2.90;;;;;;;;;;5060087;28;20214;-63
2022/09/16 15:37:53;;;;;;;6.07;2.73;;;;;;;;;;5018494;28;20622;-64
2022/09/16 15:40:27;;;;;;;6.40;2.33;;;;;;;;;;5042926;28;20243;-63
2022/09/16 15:43:12;;;;;;;5.60;2.17;;;;;;;;;;5057898;28;20200;-64
2022/09/16 15:45:44;;;;;;;8.70;2.77;;;;;;;;;;5044089;28;20313;-63
2022/09/16 15:48:21;;;;;;;5.20;2.13;;;;;;;;;;5052859;28;20278;-63
2022/09/16 15:51:01;;;;;;;6.43;2.23;;;;;;;;;;5040822;28;20190;-63